sensor_id;sensor_type;location;lat;lon;timestamp;temperature;humidity
5304;DHT22;2674;49.722;10.892;2023-08-31T00:00:43;13.50;99.90
5304;DHT22;2674;49.722;10.892;2023-08-31T00:03:10;13.60;99.90
5304;DHT22;2674;49.722;10.892;2023-08-31T00:05:38;13.50;99.90
5304;DHT22;2674;49.722;10.892;2023-08-31T00:08:05;13.50;99.90
5304;DHT22;2674;49.722;10.892;2023-08-31T00:10:32;13.40;99.90
5304;DHT22;2674;49.722;10.892;2023-08-31T00:12:58;13.50;99.90
5304;DHT22;2674;49.722;10.892;2023-08-31T00:15:23;13.40;99.90
5304;DHT22;2674;49.722;10.892;2023-08-31T00:17:49;13.40;99.90
5304;DHT22;2674;49.722;10.892;2023-08-31T00:20:16;13.40;99.90
5304;DHT22;2674;49.722;10.892;2023-08-31T00:22:42;13.30;99.90
5304;DHT22;2674;49.722;10.892;2023-08-31T00:25:08;13.30;99.90
5304;DHT22;2674;49.722;10.892;2023-08-31T00:27:34;13.40;99.90
5304;DHT22;2674;49.722;10.892;2023-08-31T00:30:06;13.40;99.90
5304;DHT22;2674;49.722;10.892;2023-08-31T00:32:34;13.30;99.90
5304;DHT22;2674;49.722;10.892;2023-08-31T00:35:00;13.30;99.90
5304;DHT22;2674;49.722;10.892;2023-08-31T00:37:26;13.30;99.90
5304;DHT22;2674;49.722;10.892;2023-08-31T00:39:52;13.30;99.90
5304;DHT22;2674;49.722;10.892;2023-08-31T00:42:20;13.20;99.90
5304;DHT22;2674;49.722;10.892;2023-08-31T00:44:45;13.20;99.90
5304;DHT22;2674;49.722;10.892;2023-08-31T00:47:15;13.10;99.90
5304;DHT22;2674;49.722;10.892;2023-08-31T00:49:44;13.10;99.90
5304;DHT22;2674;49.722;10.892;2023-08-31T00:52:10;13.10;99.90
5304;DHT22;2674;49.722;10.892;2023-08-31T00:54:36;13.00;99.90
5304;DHT22;2674;49.722;10.892;2023-08-31T00:57:02;13.00;99.90
5304;DHT22;2674;49.722;10.892;2023-08-31T00:59:29;13.00;99.90
5304;DHT22;2674;49.722;10.892;2023-08-31T01:02:19;12.90;99.90
5304;DHT22;2674;49.722;10.892;2023-08-31T01:05:29;12.90;99.90
5304;DHT22;2674;49.722;10.892;2023-08-31T01:08:14;12.90;99.90
5304;DHT22;2674;49.722;10.892;2023-08-31T01:13:36;12.90;99.90
5304;DHT22;2674;49.722;10.892;2023-08-31T01:16:06;12.90;99.90
5304;DHT22;2674;49.722;10.892;2023-08-31T01:18:34;12.90;99.90
5304;DHT22;2674;49.722;10.892;2023-08-31T01:23:56;13.00;99.90
5304;DHT22;2674;49.722;10.892;2023-08-31T01:26:24;13.00;99.90
5304;DHT22;2674;49.722;10.892;2023-08-31T01:28:51;13.00;99.90
5304;DHT22;2674;49.722;10.892;2023-08-31T01:31:18;13.00;99.90
5304;DHT22;2674;49.722;10.892;2023-08-31T01:33:43;13.00;99.90
5304;DHT22;2674;49.722;10.892;2023-08-31T01:36:21;13.00;99.90
5304;DHT22;2674;49.722;10.892;2023-08-31T01:38:52;13.00;99.90
5304;DHT22;2674;49.722;10.892;2023-08-31T01:41:22;13.00;99.90
5304;DHT22;2674;49.722;10.892;2023-08-31T01:43:51;13.00;99.90
5304;DHT22;2674;49.722;10.892;2023-08-31T01:46:18;13.00;99.90
5304;DHT22;2674;49.722;10.892;2023-08-31T01:48:44;13.10;99.90
5304;DHT22;2674;49.722;10.892;2023-08-31T01:51:11;13.00;99.90
5304;DHT22;2674;49.722;10.892;2023-08-31T01:53:37;13.00;99.90
5304;DHT22;2674;49.722;10.892;2023-08-31T01:56:03;13.00;99.90
5304;DHT22;2674;49.722;10.892;2023-08-31T01:58:30;13.00;99.90
5304;DHT22;2674;49.722;10.892;2023-08-31T02:00:56;13.00;99.90
5304;DHT22;2674;49.722;10.892;2023-08-31T02:03:22;12.90;99.90
5304;DHT22;2674;49.722;10.892;2023-08-31T02:05:48;12.90;99.90
5304;DHT22;2674;49.722;10.892;2023-08-31T02:08:13;12.90;99.90
5304;DHT22;2674;49.722;10.892;2023-08-31T02:10:43;12.90;99.90
5304;DHT22;2674;49.722;10.892;2023-08-31T02:13:09;12.80;99.90
5304;DHT22;2674;49.722;10.892;2023-08-31T02:15:38;12.80;99.90
5304;DHT22;2674;49.722;10.892;2023-08-31T02:18:04;12.80;99.90
5304;DHT22;2674;49.722;10.892;2023-08-31T02:20:30;12.80;99.90
5304;DHT22;2674;49.722;10.892;2023-08-31T02:22:56;12.80;99.90
5304;DHT22;2674;49.722;10.892;2023-08-31T02:25:22;12.80;99.90
5304;DHT22;2674;49.722;10.892;2023-08-31T02:27:48;12.70;99.90
5304;DHT22;2674;49.722;10.892;2023-08-31T02:30:13;12.70;99.90
5304;DHT22;2674;49.722;10.892;2023-08-31T02:32:39;12.70;99.90
5304;DHT22;2674;49.722;10.892;2023-08-31T02:35:05;12.70;99.90
5304;DHT22;2674;49.722;10.892;2023-08-31T02:37:32;12.70;99.90
5304;DHT22;2674;49.722;10.892;2023-08-31T02:39:58;12.60;99.90
5304;DHT22;2674;49.722;10.892;2023-08-31T02:42:24;12.60;99.90
5304;DHT22;2674;49.722;10.892;2023-08-31T02:44:52;12.60;99.90
5304;DHT22;2674;49.722;10.892;2023-08-31T02:47:19;12.50;99.90
5304;DHT22;2674;49.722;10.892;2023-08-31T02:49:45;12.50;99.90
5304;DHT22;2674;49.722;10.892;2023-08-31T02:52:11;12.50;99.90
5304;DHT22;2674;49.722;10.892;2023-08-31T02:54:36;12.50;99.90
5304;DHT22;2674;49.722;10.892;2023-08-31T02:57:02;12.40;99.90
5304;DHT22;2674;49.722;10.892;2023-08-31T02:59:28;12.40;99.90
5304;DHT22;2674;49.722;10.892;2023-08-31T03:01:54;12.40;99.90
5304;DHT22;2674;49.722;10.892;2023-08-31T03:04:20;12.30;99.90
5304;DHT22;2674;49.722;10.892;2023-08-31T03:06:46;12.30;99.90
5304;DHT22;2674;49.722;10.892;2023-08-31T03:09:13;12.30;99.90
5304;DHT22;2674;49.722;10.892;2023-08-31T03:11:39;12.30;99.90
5304;DHT22;2674;49.722;10.892;2023-08-31T03:14:04;12.30;99.90
5304;DHT22;2674;49.722;10.892;2023-08-31T03:16:30;12.30;99.90
5304;DHT22;2674;49.722;10.892;2023-08-31T03:18:56;12.30;99.90
5304;DHT22;2674;49.722;10.892;2023-08-31T03:21:22;12.30;99.90
5304;DHT22;2674;49.722;10.892;2023-08-31T03:23:48;12.20;99.90
5304;DHT22;2674;49.722;10.892;2023-08-31T03:26:13;12.20;99.90
5304;DHT22;2674;49.722;10.892;2023-08-31T03:28:39;12.20;99.90
5304;DHT22;2674;49.722;10.892;2023-08-31T03:31:06;12.20;99.90
5304;DHT22;2674;49.722;10.892;2023-08-31T03:33:32;12.20;99.90
5304;DHT22;2674;49.722;10.892;2023-08-31T03:36:01;12.20;99.90
5304;DHT22;2674;49.722;10.892;2023-08-31T03:38:30;12.10;99.90
5304;DHT22;2674;49.722;10.892;2023-08-31T03:40:57;12.10;99.90
5304;DHT22;2674;49.722;10.892;2023-08-31T03:43:23;12.10;99.90
5304;DHT22;2674;49.722;10.892;2023-08-31T03:45:49;12.10;99.90
5304;DHT22;2674;49.722;10.892;2023-08-31T03:48:15;12.10;99.90
5304;DHT22;2674;49.722;10.892;2023-08-31T03:50:43;12.20;99.90
5304;DHT22;2674;49.722;10.892;2023-08-31T03:53:09;12.20;99.90
5304;DHT22;2674;49.722;10.892;2023-08-31T03:55:36;12.20;99.90
5304;DHT22;2674;49.722;10.892;2023-08-31T03:58:03;12.20;99.90
5304;DHT22;2674;49.722;10.892;2023-08-31T04:00:29;12.20;99.90
5304;DHT22;2674;49.722;10.892;2023-08-31T04:02:55;12.20;99.90
5304;DHT22;2674;49.722;10.892;2023-08-31T04:05:21;12.20;99.90
5304;DHT22;2674;49.722;10.892;2023-08-31T04:07:48;12.20;99.90
5304;DHT22;2674;49.722;10.892;2023-08-31T04:10:13;12.10;99.90
5304;DHT22;2674;49.722;10.892;2023-08-31T04:12:39;12.10;99.90
5304;DHT22;2674;49.722;10.892;2023-08-31T04:15:06;12.10;99.90
5304;DHT22;2674;49.722;10.892;2023-08-31T04:17:32;12.10;99.90
5304;DHT22;2674;49.722;10.892;2023-08-31T04:19:58;12.10;99.90
5304;DHT22;2674;49.722;10.892;2023-08-31T04:22:23;12.10;99.90
5304;DHT22;2674;49.722;10.892;2023-08-31T04:24:49;12.10;99.90
5304;DHT22;2674;49.722;10.892;2023-08-31T04:27:15;12.10;99.90
5304;DHT22;2674;49.722;10.892;2023-08-31T04:29:44;12.00;99.90
5304;DHT22;2674;49.722;10.892;2023-08-31T04:32:09;12.10;99.90
5304;DHT22;2674;49.722;10.892;2023-08-31T04:34:35;12.00;99.90
5304;DHT22;2674;49.722;10.892;2023-08-31T04:37:01;12.10;99.90
5304;DHT22;2674;49.722;10.892;2023-08-31T04:39:27;12.10;99.90
5304;DHT22;2674;49.722;10.892;2023-08-31T04:41:53;12.10;99.90
5304;DHT22;2674;49.722;10.892;2023-08-31T04:44:19;12.00;99.90
5304;DHT22;2674;49.722;10.892;2023-08-31T04:46:45;12.00;99.90
5304;DHT22;2674;49.722;10.892;2023-08-31T04:49:11;12.10;99.90
5304;DHT22;2674;49.722;10.892;2023-08-31T04:51:39;12.00;99.90
5304;DHT22;2674;49.722;10.892;2023-08-31T04:54:07;12.00;99.90
5304;DHT22;2674;49.722;10.892;2023-08-31T04:56:33;12.10;99.90
5304;DHT22;2674;49.722;10.892;2023-08-31T04:59:19;12.10;99.90
5304;DHT22;2674;49.722;10.892;2023-08-31T05:01:45;12.10;99.90
5304;DHT22;2674;49.722;10.892;2023-08-31T05:04:10;12.10;99.90
5304;DHT22;2674;49.722;10.892;2023-08-31T05:06:36;12.10;99.90
5304;DHT22;2674;49.722;10.892;2023-08-31T05:09:02;12.20;99.90
5304;DHT22;2674;49.722;10.892;2023-08-31T05:11:28;12.20;99.90
5304;DHT22;2674;49.722;10.892;2023-08-31T05:13:54;12.20;99.90
5304;DHT22;2674;49.722;10.892;2023-08-31T05:16:20;12.20;99.90
5304;DHT22;2674;49.722;10.892;2023-08-31T05:18:46;12.20;99.90
5304;DHT22;2674;49.722;10.892;2023-08-31T05:21:11;12.20;99.90
5304;DHT22;2674;49.722;10.892;2023-08-31T05:23:37;12.30;99.90
5304;DHT22;2674;49.722;10.892;2023-08-31T05:26:03;12.30;99.90
5304;DHT22;2674;49.722;10.892;2023-08-31T05:28:29;12.30;99.90
5304;DHT22;2674;49.722;10.892;2023-08-31T05:30:57;12.40;99.90
5304;DHT22;2674;49.722;10.892;2023-08-31T05:33:23;12.50;99.90
5304;DHT22;2674;49.722;10.892;2023-08-31T05:35:51;12.50;99.90
5304;DHT22;2674;49.722;10.892;2023-08-31T05:38:17;12.60;99.90
5304;DHT22;2674;49.722;10.892;2023-08-31T05:40:43;12.60;99.90
5304;DHT22;2674;49.722;10.892;2023-08-31T05:43:15;12.70;99.90
5304;DHT22;2674;49.722;10.892;2023-08-31T05:45:44;12.70;99.90
5304;DHT22;2674;49.722;10.892;2023-08-31T05:48:10;12.70;99.90
5304;DHT22;2674;49.722;10.892;2023-08-31T05:50:35;12.80;99.90
5304;DHT22;2674;49.722;10.892;2023-08-31T05:53:02;12.80;99.90
5304;DHT22;2674;49.722;10.892;2023-08-31T05:55:29;12.80;99.90
5304;DHT22;2674;49.722;10.892;2023-08-31T05:57:55;12.90;99.90
5304;DHT22;2674;49.722;10.892;2023-08-31T06:00:20;12.90;99.90
5304;DHT22;2674;49.722;10.892;2023-08-31T06:02:46;12.90;99.90
5304;DHT22;2674;49.722;10.892;2023-08-31T06:05:12;12.90;99.90
5304;DHT22;2674;49.722;10.892;2023-08-31T06:07:38;13.00;99.90
5304;DHT22;2674;49.722;10.892;2023-08-31T06:10:05;13.00;99.90
5304;DHT22;2674;49.722;10.892;2023-08-31T06:12:31;13.10;99.90
5304;DHT22;2674;49.722;10.892;2023-08-31T06:14:58;13.10;99.90
5304;DHT22;2674;49.722;10.892;2023-08-31T06:17:24;13.30;99.90
5304;DHT22;2674;49.722;10.892;2023-08-31T06:19:49;13.20;99.90
5304;DHT22;2674;49.722;10.892;2023-08-31T06:22:15;13.20;99.90
5304;DHT22;2674;49.722;10.892;2023-08-31T06:24:41;13.20;99.90
5304;DHT22;2674;49.722;10.892;2023-08-31T06:27:08;13.30;99.90
5304;DHT22;2674;49.722;10.892;2023-08-31T06:29:33;13.30;99.90
5304;DHT22;2674;49.722;10.892;2023-08-31T06:31:59;13.40;99.90
5304;DHT22;2674;49.722;10.892;2023-08-31T06:34:25;13.50;99.90
5304;DHT22;2674;49.722;10.892;2023-08-31T06:36:51;13.50;99.90
5304;DHT22;2674;49.722;10.892;2023-08-31T06:39:16;13.60;99.90
5304;DHT22;2674;49.722;10.892;2023-08-31T06:41:43;13.70;99.90
5304;DHT22;2674;49.722;10.892;2023-08-31T06:44:09;13.80;99.90
5304;DHT22;2674;49.722;10.892;2023-08-31T06:46:34;13.90;99.90
5304;DHT22;2674;49.722;10.892;2023-08-31T06:49:04;13.90;99.90
5304;DHT22;2674;49.722;10.892;2023-08-31T06:51:31;14.00;99.90
5304;DHT22;2674;49.722;10.892;2023-08-31T06:53:57;14.10;99.90
5304;DHT22;2674;49.722;10.892;2023-08-31T06:56:30;14.20;99.90
5304;DHT22;2674;49.722;10.892;2023-08-31T06:58:56;14.20;99.90
5304;DHT22;2674;49.722;10.892;2023-08-31T07:01:21;14.30;99.90
5304;DHT22;2674;49.722;10.892;2023-08-31T07:03:47;14.30;99.90
5304;DHT22;2674;49.722;10.892;2023-08-31T07:06:13;14.40;99.90
5304;DHT22;2674;49.722;10.892;2023-08-31T07:08:39;14.50;99.90
5304;DHT22;2674;49.722;10.892;2023-08-31T07:11:06;14.60;99.90
5304;DHT22;2674;49.722;10.892;2023-08-31T07:13:35;14.70;99.90
5304;DHT22;2674;49.722;10.892;2023-08-31T07:16:01;14.80;99.90
5304;DHT22;2674;49.722;10.892;2023-08-31T07:18:26;15.00;99.90
5304;DHT22;2674;49.722;10.892;2023-08-31T07:20:52;15.10;7.20
5304;DHT22;2674;49.722;10.892;2023-08-31T07:23:18;15.20;1.00
5304;DHT22;2674;49.722;10.892;2023-08-31T07:25:44;15.30;1.00
5304;DHT22;2674;49.722;10.892;2023-08-31T07:28:10;15.40;21.40
5304;DHT22;2674;49.722;10.892;2023-08-31T07:30:36;15.40;1.00
5304;DHT22;2674;49.722;10.892;2023-08-31T07:33:03;15.60;1.00
5304;DHT22;2674;49.722;10.892;2023-08-31T07:35:30;15.60;1.00
5304;DHT22;2674;49.722;10.892;2023-08-31T07:37:55;15.70;1.00
5304;DHT22;2674;49.722;10.892;2023-08-31T07:40:21;15.70;1.00
5304;DHT22;2674;49.722;10.892;2023-08-31T07:42:47;16.00;1.00
5304;DHT22;2674;49.722;10.892;2023-08-31T07:45:13;15.90;1.00
5304;DHT22;2674;49.722;10.892;2023-08-31T07:47:39;15.80;1.00
5304;DHT22;2674;49.722;10.892;2023-08-31T07:50:05;15.90;1.00
5304;DHT22;2674;49.722;10.892;2023-08-31T07:52:32;15.80;1.00
5304;DHT22;2674;49.722;10.892;2023-08-31T07:54:58;15.70;1.00
5304;DHT22;2674;49.722;10.892;2023-08-31T07:57:24;15.80;1.00
5304;DHT22;2674;49.722;10.892;2023-08-31T07:59:50;15.90;1.00
5304;DHT22;2674;49.722;10.892;2023-08-31T08:02:16;16.00;1.00
5304;DHT22;2674;49.722;10.892;2023-08-31T08:04:42;16.00;1.00
5304;DHT22;2674;49.722;10.892;2023-08-31T08:07:08;16.10;1.00
5304;DHT22;2674;49.722;10.892;2023-08-31T08:09:34;16.10;1.00
5304;DHT22;2674;49.722;10.892;2023-08-31T08:12:01;16.30;1.00
5304;DHT22;2674;49.722;10.892;2023-08-31T08:14:27;16.40;1.00
5304;DHT22;2674;49.722;10.892;2023-08-31T08:16:53;16.50;1.00
5304;DHT22;2674;49.722;10.892;2023-08-31T08:19:23;16.60;1.00
5304;DHT22;2674;49.722;10.892;2023-08-31T08:21:49;16.60;45.20
5304;DHT22;2674;49.722;10.892;2023-08-31T08:24:15;16.50;1.00
5304;DHT22;2674;49.722;10.892;2023-08-31T08:26:44;16.50;49.90
5304;DHT22;2674;49.722;10.892;2023-08-31T08:29:10;16.60;1.00
5304;DHT22;2674;49.722;10.892;2023-08-31T08:31:36;16.70;99.90
5304;DHT22;2674;49.722;10.892;2023-08-31T08:34:02;16.80;1.00
5304;DHT22;2674;49.722;10.892;2023-08-31T08:36:29;16.80;99.90
5304;DHT22;2674;49.722;10.892;2023-08-31T08:38:55;16.90;99.90
5304;DHT22;2674;49.722;10.892;2023-08-31T08:41:24;17.00;99.90
5304;DHT22;2674;49.722;10.892;2023-08-31T08:43:51;17.10;55.10
5304;DHT22;2674;49.722;10.892;2023-08-31T08:46:17;17.20;1.00
5304;DHT22;2674;49.722;10.892;2023-08-31T08:48:44;17.20;1.00
5304;DHT22;2674;49.722;10.892;2023-08-31T08:51:13;17.30;1.00
5304;DHT22;2674;49.722;10.892;2023-08-31T08:53:43;17.30;1.00
5304;DHT22;2674;49.722;10.892;2023-08-31T08:56:09;17.30;1.00
5304;DHT22;2674;49.722;10.892;2023-08-31T08:58:34;17.50;1.00
5304;DHT22;2674;49.722;10.892;2023-08-31T09:01:02;17.70;1.00
5304;DHT22;2674;49.722;10.892;2023-08-31T09:03:28;17.80;1.00
5304;DHT22;2674;49.722;10.892;2023-08-31T09:05:54;17.90;1.00
5304;DHT22;2674;49.722;10.892;2023-08-31T09:08:29;17.90;1.00
5304;DHT22;2674;49.722;10.892;2023-08-31T09:10:58;18.00;1.00
5304;DHT22;2674;49.722;10.892;2023-08-31T09:13:27;18.00;1.00
5304;DHT22;2674;49.722;10.892;2023-08-31T09:15:55;18.00;1.00
5304;DHT22;2674;49.722;10.892;2023-08-31T09:18:27;18.10;1.00
5304;DHT22;2674;49.722;10.892;2023-08-31T09:20:54;17.90;1.00
5304;DHT22;2674;49.722;10.892;2023-08-31T09:23:22;17.90;1.00
5304;DHT22;2674;49.722;10.892;2023-08-31T09:25:50;18.10;1.00
5304;DHT22;2674;49.722;10.892;2023-08-31T09:28:24;17.90;1.00
5304;DHT22;2674;49.722;10.892;2023-08-31T09:30:52;17.80;1.00
5304;DHT22;2674;49.722;10.892;2023-08-31T09:33:20;17.70;1.00
5304;DHT22;2674;49.722;10.892;2023-08-31T09:35:51;17.50;1.00
5304;DHT22;2674;49.722;10.892;2023-08-31T09:38:17;17.50;1.00
5304;DHT22;2674;49.722;10.892;2023-08-31T09:40:43;17.60;1.00
5304;DHT22;2674;49.722;10.892;2023-08-31T09:43:09;17.70;1.00
5304;DHT22;2674;49.722;10.892;2023-08-31T09:45:35;17.70;1.00
5304;DHT22;2674;49.722;10.892;2023-08-31T09:48:03;17.90;1.00
5304;DHT22;2674;49.722;10.892;2023-08-31T09:50:30;18.10;1.00
5304;DHT22;2674;49.722;10.892;2023-08-31T09:53:03;18.30;1.00
5304;DHT22;2674;49.722;10.892;2023-08-31T09:55:32;18.40;1.00
5304;DHT22;2674;49.722;10.892;2023-08-31T09:58:00;18.50;1.00
5304;DHT22;2674;49.722;10.892;2023-08-31T10:00:27;18.30;1.00
5304;DHT22;2674;49.722;10.892;2023-08-31T10:03:02;18.20;1.00
5304;DHT22;2674;49.722;10.892;2023-08-31T10:05:29;18.10;1.00
5304;DHT22;2674;49.722;10.892;2023-08-31T10:07:55;18.00;1.00
5304;DHT22;2674;49.722;10.892;2023-08-31T10:10:22;17.90;1.00
5304;DHT22;2674;49.722;10.892;2023-08-31T10:12:48;17.80;1.00
5304;DHT22;2674;49.722;10.892;2023-08-31T10:15:18;17.90;1.00
5304;DHT22;2674;49.722;10.892;2023-08-31T10:17:45;17.80;1.00
5304;DHT22;2674;49.722;10.892;2023-08-31T10:20:18;17.70;1.00
5304;DHT22;2674;49.722;10.892;2023-08-31T10:22:44;17.60;1.00
5304;DHT22;2674;49.722;10.892;2023-08-31T10:25:10;17.60;1.00
5304;DHT22;2674;49.722;10.892;2023-08-31T10:27:39;17.50;1.00
5304;DHT22;2674;49.722;10.892;2023-08-31T10:38:17;17.30;1.00
5304;DHT22;2674;49.722;10.892;2023-08-31T10:43:59;17.10;1.00
5304;DHT22;2674;49.722;10.892;2023-08-31T10:49:16;17.50;1.00
5304;DHT22;2674;49.722;10.892;2023-08-31T10:51:53;17.90;1.00
5304;DHT22;2674;49.722;10.892;2023-08-31T10:54:46;18.20;1.00
5304;DHT22;2674;49.722;10.892;2023-08-31T10:57:12;18.30;1.00
5304;DHT22;2674;49.722;10.892;2023-08-31T10:59:55;18.30;1.00
5304;DHT22;2674;49.722;10.892;2023-08-31T11:02:38;18.30;1.00
5304;DHT22;2674;49.722;10.892;2023-08-31T11:05:09;18.10;1.00
5304;DHT22;2674;49.722;10.892;2023-08-31T11:07:37;18.00;1.00
5304;DHT22;2674;49.722;10.892;2023-08-31T11:10:17;17.90;1.00
5304;DHT22;2674;49.722;10.892;2023-08-31T11:12:50;17.80;1.00
5304;DHT22;2674;49.722;10.892;2023-08-31T11:15:18;17.70;1.00
5304;DHT22;2674;49.722;10.892;2023-08-31T11:17:44;17.50;1.00
5304;DHT22;2674;49.722;10.892;2023-08-31T11:20:19;17.40;1.00
5304;DHT22;2674;49.722;10.892;2023-08-31T11:22:47;17.50;1.00
5304;DHT22;2674;49.722;10.892;2023-08-31T11:25:16;17.50;1.00
5304;DHT22;2674;49.722;10.892;2023-08-31T11:27:52;17.50;1.00
5304;DHT22;2674;49.722;10.892;2023-08-31T11:30:18;17.50;1.00
5304;DHT22;2674;49.722;10.892;2023-08-31T11:32:50;17.50;1.00
5304;DHT22;2674;49.722;10.892;2023-08-31T11:35:17;17.60;1.00
5304;DHT22;2674;49.722;10.892;2023-08-31T11:37:44;17.70;1.00
5304;DHT22;2674;49.722;10.892;2023-08-31T11:40:11;17.80;1.00
5304;DHT22;2674;49.722;10.892;2023-08-31T11:42:40;18.00;1.00
5304;DHT22;2674;49.722;10.892;2023-08-31T11:45:07;18.10;1.00
5304;DHT22;2674;49.722;10.892;2023-08-31T11:47:33;18.20;1.00
5304;DHT22;2674;49.722;10.892;2023-08-31T11:50:00;18.30;1.00
5304;DHT22;2674;49.722;10.892;2023-08-31T11:52:27;18.30;1.00
5304;DHT22;2674;49.722;10.892;2023-08-31T11:54:53;18.20;1.00
5304;DHT22;2674;49.722;10.892;2023-08-31T11:57:25;18.20;1.00
5304;DHT22;2674;49.722;10.892;2023-08-31T11:59:51;18.10;1.00
5304;DHT22;2674;49.722;10.892;2023-08-31T12:02:20;18.00;1.00
5304;DHT22;2674;49.722;10.892;2023-08-31T12:04:47;18.10;1.00
5304;DHT22;2674;49.722;10.892;2023-08-31T12:07:17;18.10;1.00
5304;DHT22;2674;49.722;10.892;2023-08-31T12:09:47;18.10;1.00
5304;DHT22;2674;49.722;10.892;2023-08-31T12:12:19;18.10;1.00
5304;DHT22;2674;49.722;10.892;2023-08-31T12:14:45;18.30;1.00
5304;DHT22;2674;49.722;10.892;2023-08-31T12:17:11;18.50;1.00
5304;DHT22;2674;49.722;10.892;2023-08-31T12:19:38;18.60;1.00
5304;DHT22;2674;49.722;10.892;2023-08-31T12:22:05;18.60;1.00
5304;DHT22;2674;49.722;10.892;2023-08-31T12:24:40;18.60;1.00
5304;DHT22;2674;49.722;10.892;2023-08-31T12:27:07;18.60;1.00
5304;DHT22;2674;49.722;10.892;2023-08-31T12:29:33;18.60;1.00
5304;DHT22;2674;49.722;10.892;2023-08-31T12:31:59;18.50;1.00
5304;DHT22;2674;49.722;10.892;2023-08-31T12:34:25;18.50;1.00
5304;DHT22;2674;49.722;10.892;2023-08-31T12:36:51;18.50;1.00
5304;DHT22;2674;49.722;10.892;2023-08-31T12:39:18;18.50;1.00
5304;DHT22;2674;49.722;10.892;2023-08-31T12:41:44;18.50;1.00
5304;DHT22;2674;49.722;10.892;2023-08-31T12:44:10;18.60;1.00
5304;DHT22;2674;49.722;10.892;2023-08-31T12:46:36;18.60;1.00
5304;DHT22;2674;49.722;10.892;2023-08-31T12:49:02;18.70;1.00
5304;DHT22;2674;49.722;10.892;2023-08-31T12:51:30;18.60;1.00
5304;DHT22;2674;49.722;10.892;2023-08-31T12:53:59;18.70;1.00
5304;DHT22;2674;49.722;10.892;2023-08-31T12:56:25;18.70;1.00
5304;DHT22;2674;49.722;10.892;2023-08-31T12:58:53;18.80;1.00
5304;DHT22;2674;49.722;10.892;2023-08-31T13:01:20;18.80;1.00
5304;DHT22;2674;49.722;10.892;2023-08-31T13:03:47;18.90;1.00
5304;DHT22;2674;49.722;10.892;2023-08-31T13:06:13;18.90;1.00
5304;DHT22;2674;49.722;10.892;2023-08-31T13:08:39;18.80;1.00
5304;DHT22;2674;49.722;10.892;2023-08-31T13:11:05;18.70;1.00
5304;DHT22;2674;49.722;10.892;2023-08-31T13:13:32;18.70;1.00
5304;DHT22;2674;49.722;10.892;2023-08-31T13:15:58;18.60;1.00
5304;DHT22;2674;49.722;10.892;2023-08-31T13:18:24;18.60;1.00
5304;DHT22;2674;49.722;10.892;2023-08-31T13:20:53;18.60;1.00
5304;DHT22;2674;49.722;10.892;2023-08-31T13:23:20;18.60;1.00
5304;DHT22;2674;49.722;10.892;2023-08-31T13:25:46;18.70;1.00
5304;DHT22;2674;49.722;10.892;2023-08-31T13:28:13;18.80;1.00
5304;DHT22;2674;49.722;10.892;2023-08-31T13:30:41;19.00;1.00
5304;DHT22;2674;49.722;10.892;2023-08-31T13:33:08;19.30;1.00
5304;DHT22;2674;49.722;10.892;2023-08-31T13:35:34;19.50;1.00
5304;DHT22;2674;49.722;10.892;2023-08-31T13:38:01;19.80;1.00
5304;DHT22;2674;49.722;10.892;2023-08-31T13:40:27;20.00;1.00
5304;DHT22;2674;49.722;10.892;2023-08-31T13:42:55;20.30;1.00
5304;DHT22;2674;49.722;10.892;2023-08-31T13:45:22;20.30;1.00
5304;DHT22;2674;49.722;10.892;2023-08-31T13:47:48;20.40;1.00
5304;DHT22;2674;49.722;10.892;2023-08-31T13:50:16;20.50;1.00
5304;DHT22;2674;49.722;10.892;2023-08-31T13:52:41;20.50;1.00
5304;DHT22;2674;49.722;10.892;2023-08-31T13:55:08;20.60;1.00
5304;DHT22;2674;49.722;10.892;2023-08-31T13:57:33;20.60;1.00
5304;DHT22;2674;49.722;10.892;2023-08-31T13:59:59;20.70;1.00
5304;DHT22;2674;49.722;10.892;2023-08-31T14:02:26;20.80;1.00
5304;DHT22;2674;49.722;10.892;2023-08-31T14:04:52;20.80;1.00
5304;DHT22;2674;49.722;10.892;2023-08-31T14:07:19;20.80;1.00
5304;DHT22;2674;49.722;10.892;2023-08-31T14:09:45;20.80;1.00
5304;DHT22;2674;49.722;10.892;2023-08-31T14:12:11;20.80;1.00
5304;DHT22;2674;49.722;10.892;2023-08-31T14:14:36;20.80;1.00
5304;DHT22;2674;49.722;10.892;2023-08-31T14:17:02;20.80;1.00
5304;DHT22;2674;49.722;10.892;2023-08-31T14:19:29;20.80;1.00
5304;DHT22;2674;49.722;10.892;2023-08-31T14:21:55;20.80;1.00
5304;DHT22;2674;49.722;10.892;2023-08-31T14:24:21;20.70;1.00
5304;DHT22;2674;49.722;10.892;2023-08-31T14:26:47;20.60;1.00
5304;DHT22;2674;49.722;10.892;2023-08-31T14:29:13;20.40;1.00
5304;DHT22;2674;49.722;10.892;2023-08-31T14:31:39;20.30;1.00
5304;DHT22;2674;49.722;10.892;2023-08-31T14:34:05;20.20;1.00
5304;DHT22;2674;49.722;10.892;2023-08-31T14:36:30;20.10;1.00
5304;DHT22;2674;49.722;10.892;2023-08-31T14:38:56;20.00;1.00
5304;DHT22;2674;49.722;10.892;2023-08-31T14:41:22;19.80;1.00
5304;DHT22;2674;49.722;10.892;2023-08-31T14:43:48;19.60;1.00
5304;DHT22;2674;49.722;10.892;2023-08-31T14:46:13;19.50;1.00
5304;DHT22;2674;49.722;10.892;2023-08-31T14:48:39;19.50;1.00
5304;DHT22;2674;49.722;10.892;2023-08-31T14:51:05;19.60;1.00
5304;DHT22;2674;49.722;10.892;2023-08-31T14:53:31;19.80;1.00
5304;DHT22;2674;49.722;10.892;2023-08-31T14:55:57;20.10;1.00
5304;DHT22;2674;49.722;10.892;2023-08-31T14:58:22;20.30;99.90
5304;DHT22;2674;49.722;10.892;2023-08-31T15:00:48;20.40;99.90
5304;DHT22;2674;49.722;10.892;2023-08-31T15:03:14;20.60;99.90
5304;DHT22;2674;49.722;10.892;2023-08-31T15:05:41;20.60;99.90
5304;DHT22;2674;49.722;10.892;2023-08-31T15:08:07;20.40;99.90
5304;DHT22;2674;49.722;10.892;2023-08-31T15:10:34;20.30;99.90
5304;DHT22;2674;49.722;10.892;2023-08-31T15:13:00;20.00;99.90
5304;DHT22;2674;49.722;10.892;2023-08-31T15:15:26;19.90;99.90
5304;DHT22;2674;49.722;10.892;2023-08-31T15:17:52;19.80;99.90
5304;DHT22;2674;49.722;10.892;2023-08-31T15:20:18;19.80;99.90
5304;DHT22;2674;49.722;10.892;2023-08-31T15:22:44;19.80;99.90
5304;DHT22;2674;49.722;10.892;2023-08-31T15:25:10;19.90;99.90
5304;DHT22;2674;49.722;10.892;2023-08-31T15:27:36;19.90;99.90
5304;DHT22;2674;49.722;10.892;2023-08-31T15:30:03;20.00;99.90
5304;DHT22;2674;49.722;10.892;2023-08-31T15:32:30;20.10;99.90
5304;DHT22;2674;49.722;10.892;2023-08-31T15:34:57;20.00;99.90
5304;DHT22;2674;49.722;10.892;2023-08-31T15:37:22;20.00;99.90
5304;DHT22;2674;49.722;10.892;2023-08-31T15:39:48;20.00;99.90
5304;DHT22;2674;49.722;10.892;2023-08-31T15:42:14;20.00;99.90
5304;DHT22;2674;49.722;10.892;2023-08-31T15:44:41;19.90;99.90
5304;DHT22;2674;49.722;10.892;2023-08-31T15:47:08;19.90;99.90
5304;DHT22;2674;49.722;10.892;2023-08-31T15:49:34;20.00;99.90
5304;DHT22;2674;49.722;10.892;2023-08-31T15:52:02;20.10;99.90
5304;DHT22;2674;49.722;10.892;2023-08-31T15:54:29;20.20;99.90
5304;DHT22;2674;49.722;10.892;2023-08-31T15:56:56;20.20;99.90
5304;DHT22;2674;49.722;10.892;2023-08-31T15:59:22;20.20;99.90
5304;DHT22;2674;49.722;10.892;2023-08-31T16:01:48;20.20;99.90
5304;DHT22;2674;49.722;10.892;2023-08-31T16:04:13;20.20;99.90
5304;DHT22;2674;49.722;10.892;2023-08-31T16:06:39;20.20;99.90
5304;DHT22;2674;49.722;10.892;2023-08-31T16:09:06;20.30;99.90
5304;DHT22;2674;49.722;10.892;2023-08-31T16:11:33;20.40;99.90